createdAt,value
2019-02-21T00:01:23.272Z,68.30
2019-02-21T00:03:56.716Z,68.50
2019-02-21T00:06:31.952Z,68.60
2019-02-21T00:09:07.612Z,68.50
2019-02-21T00:11:41.024Z,68.60
2019-02-21T00:14:14.475Z,68.60
2019-02-21T00:16:47.912Z,68.50
2019-02-21T00:19:21.586Z,68.70
2019-02-21T00:21:55.055Z,68.60
2019-02-21T00:24:28.497Z,68.50
2019-02-21T00:27:01.917Z,68.50
2019-02-21T00:29:35.348Z,68.70
2019-02-21T00:32:08.776Z,68.70
2019-02-21T00:34:42.209Z,68.70
2019-02-21T00:37:15.644Z,68.70
2019-02-21T00:39:49.075Z,68.60
2019-02-21T00:42:22.489Z,68.60
2019-02-21T00:44:55.927Z,68.60
2019-02-21T00:47:29.350Z,68.60
2019-02-21T00:50:02.793Z,68.40
2019-02-21T00:52:36.215Z,68.20
2019-02-21T00:55:09.725Z,68.40
2019-02-21T00:57:43.154Z,68.70
2019-02-21T01:00:16.584Z,68.80
2019-02-21T01:02:50.004Z,68.90
2019-02-21T01:05:23.445Z,68.80
2019-02-21T01:07:56.869Z,68.90
2019-02-21T01:10:30.384Z,68.80
2019-02-21T01:13:03.954Z,68.90
2019-02-21T01:15:37.384Z,68.90
2019-02-21T01:18:10.816Z,68.60
2019-02-21T01:20:44.326Z,68.80
2019-02-21T01:23:17.744Z,68.80
2019-02-21T01:25:51.185Z,68.80
2019-02-21T01:28:24.621Z,68.90
2019-02-21T01:30:59.476Z,68.80
2019-02-21T01:33:32.904Z,68.80
2019-02-21T01:36:06.340Z,68.60
2019-02-21T01:38:39.760Z,68.80
2019-02-21T01:41:14.031Z,69.00
2019-02-21T01:43:47.460Z,68.80
2019-02-21T01:46:20.910Z,68.50
2019-02-21T01:48:54.332Z,68.60
2019-02-21T01:51:27.782Z,68.70
2019-02-21T01:54:01.289Z,68.80
2019-02-21T01:56:34.749Z,68.90
2019-02-21T01:59:08.180Z,68.70
2019-02-21T02:01:41.637Z,68.90
2019-02-21T02:04:15.056Z,68.80
2019-02-21T02:06:48.492Z,68.20
2019-02-21T02:09:22.160Z,68.80
2019-02-21T02:11:55.604Z,68.80
2019-02-21T02:14:29.024Z,68.90
2019-02-21T02:17:02.473Z,69.00
2019-02-21T02:19:35.892Z,69.10
2019-02-21T02:22:09.329Z,69.20
2019-02-21T02:24:42.832Z,69.30
2019-02-21T02:27:16.260Z,69.10
2019-02-21T02:29:49.686Z,69.00
2019-02-21T02:32:23.129Z,69.10
2019-02-21T02:34:56.554Z,69.10
2019-02-21T02:37:29.999Z,69.00
2019-02-21T02:40:03.542Z,69.00
2019-02-21T02:42:37.020Z,68.90
2019-02-21T02:45:10.438Z,68.90
2019-02-21T02:47:43.868Z,69.10
2019-02-21T02:50:17.284Z,69.10
2019-02-21T02:52:50.717Z,69.00
2019-02-21T02:55:24.239Z,69.20
2019-02-21T02:57:57.646Z,69.20
2019-02-21T03:00:31.081Z,69.50
2019-02-21T03:03:04.694Z,69.50
2019-02-21T03:05:38.205Z,69.60
2019-02-21T03:08:11.633Z,69.40
2019-02-21T03:10:45.052Z,69.40
2019-02-21T03:13:18.505Z,69.40
2019-02-21T03:15:51.929Z,69.40
2019-02-21T03:18:25.374Z,69.30
2019-02-21T03:20:58.789Z,69.10
2019-02-21T03:23:32.222Z,69.60
2019-02-21T03:26:05.666Z,69.40
2019-02-21T03:28:39.109Z,69.20
2019-02-21T03:31:12.536Z,69.30
2019-02-21T03:33:45.996Z,69.50
2019-02-21T03:36:19.489Z,69.60
2019-02-21T03:38:52.997Z,69.60
2019-02-21T03:41:26.425Z,69.50
2019-02-21T03:43:59.862Z,69.40
2019-02-21T03:46:33.293Z,69.50
2019-02-21T03:49:06.739Z,69.60
2019-02-21T03:51:40.163Z,69.60
2019-02-21T03:54:13.600Z,69.80
2019-02-21T03:56:47.025Z,69.80
2019-02-21T03:59:20.468Z,69.80
2019-02-21T04:02:04.880Z,69.60
2019-02-21T04:04:29.128Z,69.70
2019-02-21T04:07:02.613Z,70.00
2019-02-21T04:09:36.053Z,70.00
2019-02-21T04:12:09.476Z,69.90
2019-02-21T04:14:42.916Z,69.90
2019-02-21T04:17:16.346Z,69.80
2019-02-21T04:19:49.773Z,69.90
2019-02-21T04:22:23.206Z,70.20
2019-02-21T04:24:56.631Z,70.10
2019-02-21T04:27:30.061Z,70.10
2019-02-21T04:30:03.513Z,69.80
2019-02-21T04:32:36.928Z,70.00
2019-02-21T04:35:10.446Z,69.80
2019-02-21T04:37:43.868Z,70.00
2019-02-21T04:40:17.323Z,69.80
2019-02-21T04:42:50.737Z,69.80
2019-02-21T04:45:24.189Z,69.70
2019-02-21T04:47:57.601Z,69.80
2019-02-21T04:50:31.047Z,69.90
2019-02-21T04:53:04.465Z,69.80
2019-02-21T04:55:37.953Z,69.70
2019-02-21T04:58:11.408Z,69.90
2019-02-21T05:00:44.844Z,69.70
2019-02-21T05:03:18.269Z,70.00
2019-02-21T05:05:51.715Z,70.00
2019-02-21T05:08:25.207Z,69.90
2019-02-21T05:10:58.660Z,69.80
2019-02-21T05:13:33.837Z,69.90
2019-02-21T05:16:07.330Z,69.90
2019-02-21T05:18:40.753Z,69.80
2019-02-21T05:21:14.191Z,69.50
2019-02-21T05:23:47.608Z,69.60
2019-02-21T05:26:22.695Z,69.70
2019-02-21T05:28:56.113Z,69.80
2019-02-21T05:31:47.543Z,70.00
2019-02-21T05:34:28.386Z,70.10
2019-02-21T05:37:12.680Z,70.00
2019-02-21T05:40:02.958Z,69.90
2019-02-21T05:42:39.129Z,69.80
2019-02-21T05:45:14.299Z,70.00
2019-02-21T05:48:05.893Z,69.90
2019-02-21T05:50:43.917Z,70.30
2019-02-21T05:53:34.229Z,69.90
2019-02-21T05:56:15.318Z,69.70
2019-02-21T05:58:59.514Z,70.30
2019-02-21T06:01:43.417Z,69.60
2019-02-21T06:04:21.392Z,69.70
2019-02-21T06:07:05.147Z,69.50
2019-02-21T06:09:40.266Z,69.10
2019-02-21T06:12:32.873Z,69.80
2019-02-21T06:15:06.437Z,69.70
2019-02-21T06:17:41.530Z,69.70
2019-02-21T06:20:22.829Z,69.60
2019-02-21T06:22:57.929Z,69.60
2019-02-21T06:25:35.468Z,69.40
2019-02-21T06:28:10.557Z,69.60
2019-02-21T06:30:45.635Z,69.60
2019-02-21T06:33:19.193Z,69.80
2019-02-21T06:35:52.618Z,69.80
2019-02-21T06:38:26.057Z,69.80
2019-02-21T06:40:59.528Z,70.00
2019-02-21T06:43:33.012Z,70.10
2019-02-21T06:46:06.449Z,70.00
2019-02-21T06:48:39.880Z,70.20
2019-02-21T06:51:13.313Z,70.10
2019-02-21T06:53:46.747Z,70.20
2019-02-21T06:56:20.171Z,70.30
2019-02-21T06:58:53.609Z,70.40
2019-02-21T07:01:29.589Z,70.60
2019-02-21T07:04:02.214Z,69.80
2019-02-21T07:06:35.641Z,70.30
2019-02-21T07:09:09.087Z,70.30
2019-02-21T07:11:42.514Z,70.30
2019-02-21T07:14:15.968Z,70.40
2019-02-21T07:16:49.394Z,70.40
2019-02-21T07:19:22.840Z,70.50
2019-02-21T07:21:56.281Z,70.50
2019-02-21T07:24:29.788Z,70.40
2019-02-21T07:27:03.225Z,70.30
2019-02-21T07:29:38.744Z,70.10
2019-02-21T07:32:11.906Z,70.00
2019-02-21T07:34:45.391Z,70.40
2019-02-21T07:37:19.207Z,70.60
2019-02-21T07:39:53.103Z,70.70
2019-02-21T07:42:26.580Z,70.50
2019-02-21T07:45:00.058Z,70.50
2019-02-21T07:47:35.068Z,70.40
2019-02-21T07:50:09.075Z,70.00
2019-02-21T07:52:42.497Z,70.60
2019-02-21T07:55:15.954Z,70.70
2019-02-21T07:57:49.377Z,70.80
2019-02-21T08:00:22.825Z,70.50
2019-02-21T08:02:56.259Z,70.10
2019-02-21T08:05:29.769Z,70.20
2019-02-21T08:08:03.211Z,70.40
2019-02-21T08:10:36.641Z,70.30
2019-02-21T08:13:10.302Z,70.40
2019-02-21T08:15:43.876Z,70.60
2019-02-21T08:18:17.313Z,70.40
2019-02-21T08:20:50.755Z,70.30
2019-02-21T08:23:24.259Z,70.20
2019-02-21T08:25:57.694Z,70.10
2019-02-21T08:28:31.129Z,69.70
2019-02-21T08:31:04.638Z,69.50
2019-02-21T08:33:39.980Z,69.20
2019-02-21T08:36:13.581Z,69.20
2019-02-21T08:38:47.036Z,68.80
2019-02-21T08:41:20.500Z,68.60
2019-02-21T08:43:53.947Z,68.70
2019-02-21T08:46:27.385Z,68.60
2019-02-21T08:49:00.814Z,68.50
2019-02-21T08:51:34.338Z,68.40
2019-02-21T08:54:07.776Z,68.30
2019-02-21T08:56:41.216Z,68.10
2019-02-21T08:59:14.640Z,68.00
2019-02-21T09:01:48.231Z,67.80
2019-02-21T09:04:27.355Z,67.60
2019-02-21T09:06:56.829Z,67.40
2019-02-21T09:09:30.395Z,67.20
2019-02-21T09:12:05.603Z,67.10
2019-02-21T09:14:39.300Z,66.90
2019-02-21T09:17:12.752Z,66.80
2019-02-21T09:19:46.183Z,66.10
2019-02-21T09:22:19.749Z,66.50
2019-02-21T09:24:53.186Z,66.50
2019-02-21T09:27:26.630Z,66.30
2019-02-21T09:30:00.095Z,66.40
2019-02-21T09:32:33.572Z,66.00
2019-02-21T09:35:07.441Z,65.90
2019-02-21T09:37:40.895Z,66.00
2019-02-21T09:40:14.905Z,66.10
2019-02-21T09:42:48.406Z,66.10
2019-02-21T09:45:21.881Z,65.90
2019-02-21T09:47:55.401Z,65.70
2019-02-21T09:50:28.836Z,65.60
2019-02-21T09:53:02.369Z,65.50
2019-02-21T09:55:35.797Z,65.40
2019-02-21T09:58:09.252Z,65.20
2019-02-21T10:00:42.667Z,65.10
2019-02-21T10:03:16.118Z,65.00
2019-02-21T10:05:49.936Z,65.00
2019-02-21T10:08:23.757Z,64.70
2019-02-21T10:10:57.208Z,64.60
2019-02-21T10:13:30.701Z,64.30
2019-02-21T10:16:04.888Z,64.30
2019-02-21T10:18:38.727Z,63.90
2019-02-21T10:21:12.157Z,62.60
2019-02-21T10:23:45.601Z,62.50
2019-02-21T10:26:19.184Z,62.30
2019-02-21T10:28:52.639Z,62.10
2019-02-21T10:31:26.074Z,62.10
2019-02-21T10:33:59.512Z,62.10
2019-02-21T10:36:32.959Z,62.10
2019-02-21T10:39:06.478Z,61.90
2019-02-21T10:41:39.908Z,62.00
2019-02-21T10:44:13.363Z,62.00
2019-02-21T10:46:46.802Z,62.00
2019-02-21T10:49:20.318Z,62.00
2019-02-21T10:51:53.760Z,62.00
2019-02-21T10:54:27.214Z,61.90
2019-02-21T10:57:00.646Z,61.90
2019-02-21T10:59:34.096Z,61.90
2019-02-21T11:02:07.538Z,62.00
2019-02-21T11:04:42.243Z,62.00
2019-02-21T11:07:15.900Z,62.00
2019-02-21T11:09:49.338Z,61.90
2019-02-21T11:12:22.764Z,61.80
2019-02-21T11:14:56.210Z,61.80
2019-02-21T11:17:29.664Z,61.80
2019-02-21T11:20:03.205Z,61.80
2019-02-21T11:22:36.631Z,61.70
2019-02-21T11:25:11.721Z,61.70
2019-02-21T11:27:45.151Z,61.50
2019-02-21T11:30:20.724Z,61.30
2019-02-21T11:32:54.175Z,61.30
2019-02-21T11:35:27.642Z,61.10
2019-02-21T11:38:01.072Z,61.20
2019-02-21T11:40:34.519Z,61.10
2019-02-21T11:43:07.948Z,61.10
2019-02-21T11:45:41.393Z,60.90
2019-02-21T11:48:14.816Z,60.70
2019-02-21T11:50:48.281Z,60.60
2019-02-21T11:53:21.718Z,60.50
2019-02-21T11:55:55.164Z,60.30
2019-02-21T11:58:28.591Z,59.90
2019-02-21T12:01:03.633Z,59.90
2019-02-21T12:03:37.061Z,60.10
2019-02-21T12:06:10.505Z,60.10
2019-02-21T12:08:43.928Z,60.30
2019-02-21T12:11:17.380Z,60.20
2019-02-21T12:13:50.808Z,60.10
2019-02-21T12:16:24.255Z,60.40
2019-02-21T12:18:57.704Z,60.40
2019-02-21T12:21:31.174Z,60.50
2019-02-21T12:24:04.597Z,60.50
2019-02-21T12:26:38.056Z,60.40
2019-02-21T12:29:11.490Z,60.40
2019-02-21T12:31:46.232Z,60.40
2019-02-21T12:34:19.647Z,60.20
2019-02-21T12:36:53.168Z,60.00
2019-02-21T12:39:26.602Z,60.00
2019-02-21T12:42:00.059Z,59.60
2019-02-21T12:44:33.484Z,59.40
2019-02-21T12:47:06.921Z,59.30
2019-02-21T12:49:40.351Z,59.10
2019-02-21T12:52:13.780Z,58.50
2019-02-21T12:54:47.211Z,58.20
2019-02-21T12:57:20.684Z,58.30
2019-02-21T12:59:54.120Z,58.30
2019-02-21T13:02:27.564Z,58.00
2019-02-21T13:05:00.997Z,58.10
2019-02-21T13:07:34.461Z,57.90
2019-02-21T13:10:13.454Z,57.60
2019-02-21T13:12:46.888Z,57.40
2019-02-21T13:15:20.401Z,57.30
2019-02-21T13:17:53.844Z,57.20
2019-02-21T13:20:27.303Z,56.90
2019-02-21T13:23:00.843Z,56.70
2019-02-21T13:25:34.268Z,56.60
2019-02-21T13:28:07.719Z,56.40
2019-02-21T13:30:41.155Z,56.20
2019-02-21T13:33:14.600Z,56.20
2019-02-21T13:35:52.716Z,56.30
2019-02-21T13:38:23.204Z,56.00
2019-02-21T13:40:56.634Z,56.00
2019-02-21T13:43:30.092Z,56.00
2019-02-21T13:46:03.558Z,56.00
2019-02-21T13:48:37.005Z,55.90
2019-02-21T13:51:10.434Z,55.80
2019-02-21T13:53:43.876Z,55.50
2019-02-21T13:56:17.344Z,55.60
2019-02-21T13:58:50.817Z,55.30
2019-02-21T14:01:24.258Z,55.30
2019-02-21T14:03:57.726Z,55.20
2019-02-21T14:06:31.215Z,55.10
2019-02-21T14:09:06.334Z,55.10
2019-02-21T14:11:39.775Z,55.20
2019-02-21T14:14:13.244Z,55.10
2019-02-21T14:16:48.343Z,55.00
2019-02-21T14:19:21.820Z,55.00
2019-02-21T14:21:55.249Z,54.60
2019-02-21T14:24:36.417Z,54.20
2019-02-21T14:27:03.860Z,53.90
2019-02-21T14:29:39.602Z,53.90
2019-02-21T14:32:12.462Z,54.00
2019-02-21T14:34:45.916Z,54.10
2019-02-21T14:37:19.362Z,54.10
2019-02-21T14:39:52.799Z,54.00
2019-02-21T14:42:26.221Z,54.10
2019-02-21T14:44:59.660Z,54.20
2019-02-21T14:47:33.084Z,54.40
2019-02-21T14:50:09.602Z,54.60
2019-02-21T14:52:43.154Z,54.60
2019-02-21T14:55:17.740Z,54.60
2019-02-21T14:57:51.158Z,54.70
2019-02-21T15:00:26.699Z,54.90
2019-02-21T15:03:00.150Z,54.90
2019-02-21T15:05:33.606Z,55.20
2019-02-21T15:08:07.028Z,55.10
2019-02-21T15:10:40.470Z,54.30
2019-02-21T15:13:13.900Z,53.90
2019-02-21T15:15:47.367Z,53.50
2019-02-21T15:18:20.797Z,52.30
2019-02-21T15:20:54.276Z,52.10
2019-02-21T15:23:27.692Z,52.00
2019-02-21T15:26:01.136Z,51.50
2019-02-21T15:28:34.665Z,50.90
2019-02-21T15:31:08.591Z,50.40
2019-02-21T15:33:42.025Z,49.80
2019-02-21T15:36:15.530Z,50.20
2019-02-21T15:38:48.975Z,50.40
2019-02-21T15:41:22.400Z,50.30
2019-02-21T15:43:55.833Z,50.80
2019-02-21T15:46:29.276Z,51.10
2019-02-21T15:49:02.729Z,51.20
2019-02-21T15:51:36.163Z,51.40
2019-02-21T15:54:09.617Z,51.40
2019-02-21T15:56:43.149Z,51.70
2019-02-21T15:59:16.581Z,52.00
2019-02-21T16:01:51.594Z,52.20
2019-02-21T16:04:25.017Z,52.70
2019-02-21T16:06:58.477Z,53.20
2019-02-21T16:09:31.916Z,53.40
2019-02-21T16:12:05.789Z,53.60
2019-02-21T16:14:39.684Z,53.40
2019-02-21T16:17:13.143Z,53.50
2019-02-21T16:19:46.576Z,53.60
2019-02-21T16:22:20.056Z,53.70
2019-02-21T16:24:53.549Z,53.80
2019-02-21T16:27:27.004Z,54.00
2019-02-21T16:30:00.437Z,54.10
2019-02-21T16:32:33.886Z,54.20
2019-02-21T16:35:10.445Z,54.40
2019-02-21T16:37:43.910Z,54.60
2019-02-21T16:40:18.976Z,54.90
2019-02-21T16:42:52.423Z,54.90
2019-02-21T16:45:26.872Z,55.10
2019-02-21T16:48:00.478Z,55.30
2019-02-21T16:50:33.919Z,55.40
2019-02-21T16:53:07.362Z,55.60
2019-02-21T16:55:40.792Z,55.70
2019-02-21T16:58:14.304Z,56.00
2019-02-21T17:00:53.234Z,56.10
2019-02-21T17:03:22.942Z,56.40
2019-02-21T17:05:56.392Z,56.60
2019-02-21T17:08:29.897Z,56.80
2019-02-21T17:11:03.327Z,56.90
2019-02-21T17:13:36.776Z,57.10
2019-02-21T17:16:10.205Z,57.30
2019-02-21T17:18:43.672Z,57.50
2019-02-21T17:21:17.110Z,57.60
2019-02-21T17:23:50.562Z,57.80
2019-02-21T17:26:24.004Z,58.50
2019-02-21T17:28:57.463Z,58.20
2019-02-21T17:31:30.902Z,58.20
2019-02-21T17:34:04.335Z,58.30
2019-02-21T17:36:37.760Z,58.50
2019-02-21T17:39:11.212Z,58.50
2019-02-21T17:41:44.636Z,58.60
2019-02-21T17:44:18.097Z,58.70
2019-02-21T17:46:51.524Z,58.90
2019-02-21T17:49:24.980Z,59.20
2019-02-21T17:51:58.414Z,59.30
2019-02-21T17:54:31.899Z,59.40
2019-02-21T17:57:05.324Z,59.30
2019-02-21T17:59:38.817Z,59.30
2019-02-21T18:02:12.315Z,59.50
2019-02-21T18:04:45.796Z,59.60
2019-02-21T18:07:19.236Z,59.70
2019-02-21T18:09:52.677Z,59.80
2019-02-21T18:12:26.109Z,59.90
2019-02-21T18:14:59.554Z,59.90
2019-02-21T18:17:32.973Z,60.00
2019-02-21T18:20:09.849Z,60.00
2019-02-21T18:22:43.346Z,60.20
2019-02-21T18:25:25.757Z,60.30
2019-02-21T18:27:59.180Z,60.40
2019-02-21T18:30:32.691Z,60.70
2019-02-21T18:33:06.125Z,60.90
2019-02-21T18:35:43.377Z,61.10
2019-02-21T18:38:16.886Z,61.10
2019-02-21T18:40:50.325Z,61.40
2019-02-21T18:43:23.748Z,61.50
2019-02-21T18:45:57.692Z,61.70
2019-02-21T18:48:31.392Z,61.90
2019-02-21T18:51:05.260Z,62.00
2019-02-21T18:53:38.697Z,62.10
2019-02-21T18:56:12.207Z,62.10
2019-02-21T18:58:45.629Z,62.10
2019-02-21T19:01:19.076Z,62.20
2019-02-21T19:03:52.506Z,62.30
2019-02-21T19:06:25.977Z,62.30
2019-02-21T19:08:59.443Z,62.60
2019-02-21T19:11:32.895Z,62.90
2019-02-21T19:14:06.326Z,63.10
2019-02-21T19:16:39.789Z,63.50
2019-02-21T19:19:13.214Z,63.70
2019-02-21T19:21:46.693Z,63.90
2019-02-21T19:24:20.175Z,64.10
2019-02-21T19:26:53.630Z,64.20
2019-02-21T19:29:27.058Z,64.40
2019-02-21T19:32:00.567Z,64.40
2019-02-21T19:34:34.060Z,65.10
2019-02-21T19:37:07.510Z,64.50
2019-02-21T19:39:40.949Z,64.60
2019-02-21T19:42:14.457Z,64.70
2019-02-21T19:44:47.884Z,64.80
2019-02-21T19:47:21.337Z,65.70
2019-02-21T19:49:54.764Z,65.10
2019-02-21T19:52:28.285Z,65.30
2019-02-21T19:55:01.782Z,65.40
2019-02-21T19:57:35.299Z,65.60
2019-02-21T20:00:21.752Z,65.60
2019-02-21T20:02:55.721Z,65.80
2019-02-21T20:05:29.287Z,65.90
2019-02-21T20:08:08.770Z,66.00
2019-02-21T20:10:38.023Z,66.10
2019-02-21T20:13:13.108Z,66.10
2019-02-21T20:15:46.553Z,66.30
2019-02-21T20:18:20.053Z,66.40
2019-02-21T20:20:53.485Z,66.50
2019-02-21T20:23:26.929Z,66.50
2019-02-21T20:26:00.355Z,66.60
2019-02-21T20:28:33.797Z,66.70
2019-02-21T20:31:07.310Z,66.60
2019-02-21T20:33:40.747Z,66.70
2019-02-21T20:36:14.176Z,66.60
2019-02-21T20:38:47.622Z,66.70
2019-02-21T20:41:21.047Z,66.80
2019-02-21T20:43:54.488Z,66.90
2019-02-21T20:46:27.933Z,66.70
2019-02-21T20:49:01.365Z,66.70
2019-02-21T20:51:34.796Z,66.80
2019-02-21T20:54:08.245Z,67.00
2019-02-21T20:56:41.678Z,67.00
2019-02-21T20:59:15.209Z,66.80
2019-02-21T21:01:48.705Z,66.90
2019-02-21T21:04:22.153Z,66.90
2019-02-21T21:06:55.577Z,66.70
2019-02-21T21:09:29.020Z,66.90
2019-02-21T21:12:02.447Z,66.90
2019-02-21T21:14:35.884Z,67.00
2019-02-21T21:17:09.315Z,67.00
2019-02-21T21:19:42.753Z,67.00
2019-02-21T21:22:16.173Z,67.20
2019-02-21T21:24:49.613Z,67.10
2019-02-21T21:27:23.113Z,67.30
2019-02-21T21:29:56.563Z,67.30
2019-02-21T21:32:29.993Z,67.30
2019-02-21T21:35:03.509Z,67.40
2019-02-21T21:37:36.954Z,67.50
2019-02-21T21:40:18.263Z,67.60
2019-02-21T21:42:51.682Z,67.80
2019-02-21T21:45:25.139Z,67.60
2019-02-21T21:47:58.629Z,67.80
2019-02-21T21:50:32.342Z,67.80
2019-02-21T21:53:05.772Z,67.80
2019-02-21T21:55:39.218Z,68.00
2019-02-21T21:58:13.062Z,67.90
2019-02-21T22:00:46.570Z,68.00
2019-02-21T22:03:20.012Z,68.50
2019-02-21T22:05:53.452Z,68.00
2019-02-21T22:08:26.890Z,68.00
2019-02-21T22:11:00.484Z,68.00
2019-02-21T22:13:33.915Z,68.10
2019-02-21T22:16:07.361Z,68.00
2019-02-21T22:18:40.799Z,68.00
2019-02-21T22:21:14.239Z,68.00
2019-02-21T22:23:47.686Z,67.90
2019-02-21T22:26:21.132Z,68.00
2019-02-21T22:28:54.562Z,68.00
2019-02-21T22:31:27.999Z,67.80
2019-02-21T22:34:01.436Z,67.80
2019-02-21T22:36:34.884Z,67.80
2019-02-21T22:39:15.794Z,67.70
2019-02-21T22:41:43.568Z,67.90
2019-02-21T22:44:17.005Z,67.90
2019-02-21T22:46:50.436Z,67.90
2019-02-21T22:49:23.860Z,67.90
2019-02-21T22:51:57.325Z,67.90
2019-02-21T22:54:30.808Z,67.90
2019-02-21T22:57:04.243Z,68.00
2019-02-21T22:59:37.667Z,68.60
2019-02-21T23:02:11.180Z,68.20
2019-02-21T23:04:47.683Z,68.30
2019-02-21T23:07:41.994Z,68.40
2019-02-21T23:10:15.492Z,68.50
2019-02-21T23:12:48.940Z,68.40
2019-02-21T23:15:22.364Z,68.50
2019-02-21T23:17:55.821Z,68.50
2019-02-21T23:20:29.241Z,68.70
2019-02-21T23:23:02.686Z,68.90
2019-02-21T23:25:36.131Z,68.90
2019-02-21T23:28:09.569Z,69.00
2019-02-21T23:30:42.998Z,69.10
2019-02-21T23:33:16.445Z,69.10
2019-02-21T23:35:49.868Z,69.20
2019-02-21T23:38:23.316Z,69.20
2019-02-21T23:40:56.830Z,69.20
2019-02-21T23:43:30.260Z,69.30
2019-02-21T23:46:03.746Z,69.50
2019-02-21T23:48:37.217Z,70.60
2019-02-21T23:51:10.642Z,69.70
2019-02-21T23:53:44.091Z,69.60
2019-02-21T23:56:17.530Z,69.70
2019-02-21T23:58:50.972Z,69.70
